Upstream stations:
Downstream station:
SHEF ID: WCOM7 Spring R A - Waco MO
STATION TYPE: Stream Gauge
Regulating: Stage = 19.00, Flow = 17743
PRECIP STAGE RIV-FLOW BAT-LOAD
in ft cfs volt
Ccp-Rev Ccp-Rev Ccp-Rev Ccp-Rev
(US/Central)
03/25 00:00 0.00 5.47 2748 12.77
03/25 01:00 0.00 5.36 2654 12.77
03/25 02:00 0.00 5.31 2612 12.71
03/25 03:00 0.00 5.23 2545 12.71
03/25 04:00 0.00 5.18 2503 12.71
03/25 05:00 0.00 5.11 2445 12.65
03/25 06:00 0.00 5.09 2428 12.65
03/25 07:00 0.00 5.07 2412 12.60
03/25 08:00 0.00 5.04 2387 12.60
03/25 09:00 0.00 5.00 2354 12.77
03/25 10:00 0.00 4.92 2289 13.18
03/25 11:00 0.00 4.89 2264 14.06
03/25 12:00 0.00 4.84 2224 13.88
03/25 13:00 0.00 4.80 2192 14.35
03/25 14:00 0.00 4.72 2128 14.30
03/25 15:00 0.00 4.67 2088 14.00
03/25 16:00 0.00 4.69 2104 14.24
03/25 17:00 0.00 4.62 2049 13.94
03/25 18:00 0.00 4.61 2041 13.88
03/25 19:00 0.00 4.59 2025 13.77
03/25 20:00 0.00 4.53 1978 13.48
03/25 21:00 0.00 4.49 1947 13.18
03/25 22:00 0.00 4.45 1915 12.95
03/25 23:00 0.00 4.44 1907 12.83